Time;durP1;ratioP1;P1;durP2;ratioP2;P2;SDS_P1;SDS_P2;PMS_P1;PMS_P2;Temp;Humidity;BMP_temperature;BMP_pressure;BME280_temperature;BME280_humidity;BME280_pressure;Samples;Min_cycle;Max_cycle;Signal;HPM_P1;HPM_P2
2022/02/25 00:01:10;;;;;;;4.03;2.10;;;;;;;;;;5024507;28;20216;-78
2022/02/25 00:03:39;;;;;;;3.23;2.17;;;;;;;;;;5026485;28;20353;-78
2022/02/25 00:06:06;;;;;;;8.13;2.33;;;;;;;;;;5026040;28;20558;-75
2022/02/25 00:08:35;;;;;;;3.00;2.13;;;;;;;;;;5023563;28;20226;-78
2022/02/25 00:11:03;;;;;;;10.07;2.40;;;;;;;;;;5024430;28;20290;-78
2022/02/25 00:13:30;;;;;;;4.57;2.50;;;;;;;;;;5027783;28;20199;-78
2022/02/25 00:15:57;;;;;;;4.80;2.30;;;;;;;;;;5017915;28;20201;-77
2022/02/25 00:18:34;;;;;;;4.57;1.73;;;;;;;;;;5023064;28;20223;-78
2022/02/25 00:21:03;;;;;;;3.93;2.10;;;;;;;;;;5022725;28;20219;-79
2022/02/25 00:23:30;;;;;;;4.07;2.00;;;;;;;;;;5024949;28;20203;-79
2022/02/25 00:25:57;;;;;;;3.77;2.03;;;;;;;;;;5020193;28;21369;-77
2022/02/25 00:28:24;;;;;;;4.23;2.23;;;;;;;;;;5021653;28;20323;-79
2022/02/25 00:30:51;;;;;;;6.87;2.67;;;;;;;;;;5022764;28;20291;-77
2022/02/25 00:33:18;;;;;;;5.43;2.50;;;;;;;;;;5023706;28;20390;-77
2022/02/25 00:35:46;;;;;;;6.20;3.07;;;;;;;;;;5025511;28;20212;-80
2022/02/25 00:38:14;;;;;;;7.43;2.90;;;;;;;;;;5019821;28;20207;-78
2022/02/25 00:40:41;;;;;;;11.23;2.97;;;;;;;;;;5017997;28;20204;-77
2022/02/25 00:43:08;;;;;;;5.77;2.87;;;;;;;;;;5020480;28;20315;-78
2022/02/25 00:45:36;;;;;;;6.70;3.50;;;;;;;;;;5020233;28;20224;-76
2022/02/25 00:48:03;;;;;;;8.23;3.23;;;;;;;;;;5030187;23;20716;-79
2022/02/25 00:50:30;;;;;;;5.57;2.77;;;;;;;;;;5022134;28;20304;-79
2022/02/25 00:52:57;;;;;;;7.27;3.17;;;;;;;;;;5006085;28;20232;-79
2022/02/25 00:55:26;;;;;;;15.53;3.50;;;;;;;;;;5004944;28;20275;-80
2022/02/25 00:57:53;;;;;;;4.67;3.03;;;;;;;;;;5003122;28;20208;-79
2022/02/25 01:00:21;;;;;;;9.83;3.53;;;;;;;;;;5004041;28;20196;-79
2022/02/25 01:02:49;;;;;;;6.83;3.90;;;;;;;;;;5003118;28;20706;-79
2022/02/25 01:05:29;;;;;;;6.77;3.50;;;;;;;;;;5007785;28;20224;-79
2022/02/25 01:07:57;;;;;;;10.10;4.40;;;;;;;;;;4990350;28;20255;-78
2022/02/25 01:10:26;;;;;;;10.10;4.43;;;;;;;;;;5002337;28;20295;-78
2022/02/25 01:12:53;;;;;;;8.30;4.07;;;;;;;;;;5003557;28;20315;-78
2022/02/25 01:15:20;;;;;;;13.43;4.37;;;;;;;;;;4999002;28;20625;-78
2022/02/25 01:17:47;;;;;;;10.70;3.73;;;;;;;;;;5005562;28;20208;-79
2022/02/25 01:20:15;;;;;;;10.80;3.70;;;;;;;;;;5002131;28;20765;-78
2022/02/25 01:22:44;;;;;;;7.43;3.87;;;;;;;;;;5000148;28;20256;-78
2022/02/25 01:25:11;;;;;;;8.53;3.93;;;;;;;;;;5003091;28;20229;-78
2022/02/25 01:27:40;;;;;;;7.60;4.03;;;;;;;;;;4996456;28;20295;-78
2022/02/25 01:30:07;;;;;;;8.60;4.27;;;;;;;;;;5002684;28;20205;-78
2022/02/25 01:32:35;;;;;;;7.57;3.50;;;;;;;;;;4999441;28;20702;-78
2022/02/25 01:35:02;;;;;;;9.80;3.60;;;;;;;;;;5001080;28;20723;-79
2022/02/25 01:37:30;;;;;;;7.70;3.50;;;;;;;;;;5007135;28;20218;-78
2022/02/25 01:39:57;;;;;;;10.27;3.87;;;;;;;;;;4999806;28;20295;-79
2022/02/25 01:42:24;;;;;;;8.53;3.97;;;;;;;;;;5000954;28;20224;-79
2022/02/25 01:44:53;;;;;;;13.33;4.13;;;;;;;;;;5005669;28;20214;-78
2022/02/25 01:47:20;;;;;;;10.23;3.60;;;;;;;;;;5007719;28;20212;-79
2022/02/25 01:49:47;;;;;;;9.27;3.87;;;;;;;;;;5001708;28;20205;-79
2022/02/25 01:52:15;;;;;;;13.40;4.20;;;;;;;;;;5002565;28;20252;-79
2022/02/25 01:54:43;;;;;;;11.77;3.70;;;;;;;;;;5007705;28;20200;-78
2022/02/25 01:57:11;;;;;;;7.57;3.40;;;;;;;;;;5016501;28;20272;-79
2022/02/25 01:59:39;;;;;;;11.77;4.07;;;;;;;;;;5016315;28;20216;-79
2022/02/25 02:02:07;;;;;;;9.70;3.67;;;;;;;;;;5016360;28;20335;-78
2022/02/25 02:04:34;;;;;;;11.67;3.80;;;;;;;;;;5016382;28;20204;-79
2022/02/25 02:07:02;;;;;;;8.23;3.77;;;;;;;;;;5016554;28;20287;-79
2022/02/25 02:09:29;;;;;;;8.00;3.63;;;;;;;;;;5016648;28;20231;-79
2022/02/25 02:11:57;;;;;;;7.43;3.40;;;;;;;;;;5013661;28;20311;-78
2022/02/25 02:14:25;;;;;;;10.70;4.60;;;;;;;;;;5015231;28;20726;-79
2022/02/25 02:16:53;;;;;;;9.27;3.70;;;;;;;;;;5013342;28;20243;-79
2022/02/25 02:19:22;;;;;;;8.10;3.37;;;;;;;;;;5017974;28;20291;-79
2022/02/25 02:21:50;;;;;;;10.40;3.70;;;;;;;;;;5012342;28;20548;-79
2022/02/25 02:24:19;;;;;;;11.93;3.80;;;;;;;;;;5016973;28;20204;-78
2022/02/25 02:26:47;;;;;;;10.03;3.43;;;;;;;;;;5011362;28;20234;-79
2022/02/25 02:29:14;;;;;;;8.47;3.60;;;;;;;;;;5014211;28;20216;-79
2022/02/25 02:31:41;;;;;;;10.43;3.23;;;;;;;;;;5012968;28;20650;-78
2022/02/25 02:34:09;;;;;;;9.73;3.20;;;;;;;;;;5017154;28;20308;-79
2022/02/25 02:36:37;;;;;;;8.77;3.23;;;;;;;;;;5014885;28;20236;-79
2022/02/25 02:39:05;;;;;;;7.70;3.30;;;;;;;;;;5018652;28;20209;-79
2022/02/25 02:41:33;;;;;;;7.57;2.90;;;;;;;;;;5018665;28;20224;-79
2022/02/25 02:44:01;;;;;;;7.93;2.40;;;;;;;;;;5017138;28;20211;-79
2022/02/25 02:46:28;;;;;;;8.13;2.43;;;;;;;;;;5019687;28;20708;-78
2022/02/25 02:48:55;;;;;;;9.30;2.57;;;;;;;;;;5020249;28;20503;-79
2022/02/25 02:51:22;;;;;;;7.47;2.43;;;;;;;;;;5019755;28;20201;-78
2022/02/25 02:53:49;;;;;;;9.33;2.70;;;;;;;;;;5023155;28;20307;-78
2022/02/25 02:56:17;;;;;;;9.13;2.57;;;;;;;;;;5019932;28;20236;-79
2022/02/25 02:58:46;;;;;;;8.70;3.13;;;;;;;;;;5025424;28;20711;-79
2022/02/25 03:01:13;;;;;;;5.83;2.43;;;;;;;;;;5033250;28;20189;-79
2022/02/25 03:03:40;;;;;;;5.10;2.03;;;;;;;;;;5022594;28;20210;-79
2022/02/25 03:06:08;;;;;;;6.53;2.40;;;;;;;;;;5017189;28;20258;-79
2022/02/25 03:08:35;;;;;;;9.43;2.40;;;;;;;;;;5021503;28;20215;-79
2022/02/25 03:11:02;;;;;;;5.17;1.80;;;;;;;;;;5020296;28;20203;-79
2022/02/25 03:13:30;;;;;;;9.23;2.23;;;;;;;;;;5017442;28;20201;-79
2022/02/25 03:15:58;;;;;;;4.90;2.17;;;;;;;;;;5019930;28;20205;-79
2022/02/25 03:18:26;;;;;;;6.00;2.17;;;;;;;;;;5019568;28;20289;-79
2022/02/25 03:20:53;;;;;;;8.57;2.37;;;;;;;;;;5019400;28;20280;-78
2022/02/25 03:23:20;;;;;;;4.87;1.83;;;;;;;;;;5020817;28;20230;-78
2022/02/25 03:25:47;;;;;;;5.33;1.90;;;;;;;;;;5019706;28;20252;-79
2022/02/25 03:28:14;;;;;;;5.17;1.80;;;;;;;;;;5021956;28;20590;-79
2022/02/25 03:30:42;;;;;;;7.03;1.90;;;;;;;;;;5023800;28;20200;-78
2022/02/25 03:33:10;;;;;;;6.03;1.87;;;;;;;;;;5024763;28;20224;-78
2022/02/25 03:35:38;;;;;;;7.57;2.00;;;;;;;;;;5022475;28;20267;-79
2022/02/25 03:38:05;;;;;;;5.57;1.97;;;;;;;;;;5021898;28;20678;-78
2022/02/25 03:40:32;;;;;;;7.53;1.93;;;;;;;;;;5021498;28;20208;-78
2022/02/25 03:42:59;;;;;;;7.87;1.80;;;;;;;;;;5023947;28;20333;-79
2022/02/25 03:45:27;;;;;;;10.80;2.20;;;;;;;;;;5025223;28;20387;-79
2022/02/25 03:47:54;;;;;;;11.07;1.90;;;;;;;;;;5024931;28;20247;-79
2022/02/25 03:50:22;;;;;;;5.13;1.60;;;;;;;;;;5027594;28;20272;-79
2022/02/25 03:52:50;;;;;;;7.63;1.90;;;;;;;;;;5024434;28;20295;-78
2022/02/25 03:55:17;;;;;;;5.97;1.87;;;;;;;;;;5022682;28;20196;-79
2022/02/25 03:57:44;;;;;;;8.87;1.50;;;;;;;;;;5019646;28;20295;-78
2022/02/25 04:00:12;;;;;;;8.67;1.80;;;;;;;;;;5018676;28;20299;-78
2022/02/25 04:02:39;;;;;;;6.80;1.77;;;;;;;;;;5009633;28;20255;-78
2022/02/25 04:05:10;;;;;;;5.37;1.70;;;;;;;;;;5013753;28;20244;-78
2022/02/25 04:07:39;;;;;;;6.97;2.00;;;;;;;;;;5019623;28;20230;-77
2022/02/25 04:10:06;;;;;;;7.73;1.87;;;;;;;;;;5016474;28;20299;-78
2022/02/25 04:12:33;;;;;;;5.33;1.80;;;;;;;;;;5010253;28;20225;-78
2022/02/25 04:15:00;;;;;;;9.83;1.60;;;;;;;;;;5017395;28;20258;-78
2022/02/25 04:17:28;;;;;;;4.40;1.33;;;;;;;;;;5017080;28;20287;-77
2022/02/25 04:19:55;;;;;;;10.20;1.80;;;;;;;;;;5017803;28;20218;-78
2022/02/25 04:22:22;;;;;;;7.80;1.80;;;;;;;;;;5021414;28;20266;-78
2022/02/25 04:24:50;;;;;;;8.83;1.60;;;;;;;;;;5009799;28;20215;-78
2022/02/25 04:27:18;;;;;;;6.50;1.80;;;;;;;;;;5019201;28;20259;-79
2022/02/25 04:29:46;;;;;;;5.83;1.63;;;;;;;;;;5016504;28;20231;-79
2022/02/25 04:32:13;;;;;;;10.30;1.90;;;;;;;;;;5023211;28;20291;-79
2022/02/25 04:34:40;;;;;;;6.63;2.07;;;;;;;;;;5021660;28;21004;-79
2022/02/25 04:37:08;;;;;;;18.20;4.23;;;;;;;;;;5023984;28;20470;-78
2022/02/25 04:39:35;;;;;;;8.53;2.07;;;;;;;;;;5021329;28;20458;-78
2022/02/25 04:42:03;;;;;;;10.87;2.07;;;;;;;;;;5021960;28;20481;-79
2022/02/25 04:44:31;;;;;;;8.27;1.83;;;;;;;;;;5022396;28;20439;-79
2022/02/25 04:46:58;;;;;;;7.00;2.30;;;;;;;;;;5023281;28;20749;-79
2022/02/25 04:49:25;;;;;;;12.17;2.50;;;;;;;;;;5022773;28;20218;-79
2022/02/25 04:51:52;;;;;;;9.77;2.20;;;;;;;;;;5015537;28;20511;-80
2022/02/25 04:54:19;;;;;;;9.23;3.00;;;;;;;;;;5001865;28;20736;-79
2022/02/25 04:56:46;;;;;;;7.47;2.00;;;;;;;;;;5002668;28;20476;-79
2022/02/25 04:59:15;;;;;;;4.83;2.37;;;;;;;;;;5005515;28;20709;-79
2022/02/25 05:01:43;;;;;;;10.20;2.40;;;;;;;;;;4999196;28;20717;-80
2022/02/25 05:04:11;;;;;;;10.77;3.10;;;;;;;;;;4999978;28;20463;-80
2022/02/25 05:06:38;;;;;;;10.60;2.40;;;;;;;;;;4999309;28;20514;-79
2022/02/25 05:09:05;;;;;;;7.93;2.40;;;;;;;;;;5003149;28;20546;-80
2022/02/25 05:11:32;;;;;;;13.73;2.60;;;;;;;;;;5000628;28;20220;-81
2022/02/25 05:14:02;;;;;;;9.40;2.70;;;;;;;;;;5001518;28;20962;-81
2022/02/25 05:22:00;;;;;;;12.17;3.13;;;;;;;;;;5008371;28;20552;-79
2022/02/25 05:24:29;;;;;;;6.23;2.40;;;;;;;;;;5002457;28;20470;-79
2022/02/25 05:26:56;;;;;;;8.50;2.60;;;;;;;;;;5002611;28;20517;-80
2022/02/25 05:29:23;;;;;;;16.03;2.80;;;;;;;;;;5003155;28;20467;-80
2022/02/25 05:31:52;;;;;;;8.40;2.10;;;;;;;;;;5004741;28;20492;-79
2022/02/25 05:34:19;;;;;;;8.17;2.33;;;;;;;;;;5006895;28;20524;-78
2022/02/25 05:36:46;;;;;;;6.80;2.33;;;;;;;;;;5009514;28;20870;-78
2022/02/25 05:39:13;;;;;;;16.33;2.47;;;;;;;;;;5008145;28;20471;-78
2022/02/25 05:41:41;;;;;;;5.10;2.00;;;;;;;;;;5003722;28;20499;-79
2022/02/25 05:44:08;;;;;;;12.47;2.53;;;;;;;;;;5004425;28;20455;-80
2022/02/25 05:46:35;;;;;;;7.40;2.17;;;;;;;;;;5006714;28;20567;-78
2022/02/25 05:49:04;;;;;;;11.20;2.83;;;;;;;;;;5008692;28;21966;-79
2022/02/25 05:51:31;;;;;;;8.77;2.67;;;;;;;;;;5008644;28;20533;-79
2022/02/25 05:53:58;;;;;;;10.43;4.33;;;;;;;;;;5001867;28;20474;-79
2022/02/25 05:56:26;;;;;;;10.07;4.07;;;;;;;;;;5003808;28;20583;-79
2022/02/25 05:58:53;;;;;;;13.13;5.10;;;;;;;;;;5005419;28;20478;-79
2022/02/25 06:01:20;;;;;;;13.00;4.00;;;;;;;;;;4998485;28;20562;-78
2022/02/25 06:03:48;;;;;;;12.60;3.73;;;;;;;;;;5002286;28;20484;-78
2022/02/25 06:06:17;;;;;;;8.97;3.90;;;;;;;;;;5004932;28;20917;-79
2022/02/25 06:08:44;;;;;;;15.80;5.40;;;;;;;;;;5007513;28;20841;-78
2022/02/25 06:11:11;;;;;;;11.53;3.70;;;;;;;;;;5016618;28;20522;-78
2022/02/25 06:13:38;;;;;;;14.30;3.20;;;;;;;;;;5016582;28;20456;-78
2022/02/25 06:16:06;;;;;;;9.87;3.10;;;;;;;;;;5007361;28;20466;-77
2022/02/25 06:18:37;;;;;;;9.67;3.00;;;;;;;;;;5006511;28;20466;-77
2022/02/25 06:21:04;;;;;;;6.80;2.90;;;;;;;;;;5007490;28;20452;-77
2022/02/25 06:23:33;;;;;;;9.53;2.73;;;;;;;;;;5008751;28;20539;-78
2022/02/25 06:26:00;;;;;;;11.07;3.13;;;;;;;;;;5008731;28;20455;-77
2022/02/25 06:28:27;;;;;;;8.73;2.70;;;;;;;;;;5008480;28;20483;-77
2022/02/25 06:30:55;;;;;;;14.13;3.53;;;;;;;;;;5008404;28;20470;-77
2022/02/25 06:33:22;;;;;;;10.63;3.43;;;;;;;;;;5007829;28;20468;-77
2022/02/25 06:35:49;;;;;;;12.63;3.50;;;;;;;;;;5009183;28;20970;-77
2022/02/25 06:38:16;;;;;;;13.97;4.27;;;;;;;;;;5005364;28;20451;-77
2022/02/25 06:40:44;;;;;;;11.77;3.20;;;;;;;;;;5013939;28;20485;-79
2022/02/25 06:43:12;;;;;;;15.07;3.50;;;;;;;;;;5027151;28;20462;-78
2022/02/25 06:45:39;;;;;;;11.27;3.17;;;;;;;;;;5023906;28;20211;-80
2022/02/25 06:48:06;;;;;;;17.47;3.53;;;;;;;;;;5026953;28;20490;-79
2022/02/25 06:50:33;;;;;;;14.57;3.90;;;;;;;;;;5008734;22;20571;-79
2022/02/25 06:53:00;;;;;;;18.03;4.07;;;;;;;;;;4971645;28;20841;-81
2022/02/25 06:55:28;;;;;;;15.13;3.60;;;;;;;;;;4968845;28;20578;-80
2022/02/25 06:57:56;;;;;;;10.90;3.47;;;;;;;;;;4960870;28;20553;-80
2022/02/25 07:00:24;;;;;;;14.87;3.00;;;;;;;;;;4958974;28;20453;-81
2022/02/25 07:02:51;;;;;;;16.67;2.50;;;;;;;;;;4962976;28;20597;-81
2022/02/25 07:05:19;;;;;;;14.43;2.30;;;;;;;;;;4971706;28;20476;-81
2022/02/25 07:07:46;;;;;;;14.47;2.33;;;;;;;;;;4970007;28;20230;-81
2022/02/25 07:10:13;;;;;;;11.40;1.87;;;;;;;;;;4970414;28;20485;-81
2022/02/25 07:12:41;;;;;;;13.67;2.57;;;;;;;;;;4974730;28;20597;-82
2022/02/25 07:15:10;;;;;;;9.80;2.10;;;;;;;;;;4977177;28;20458;-80
2022/02/25 07:17:37;;;;;;;16.10;2.53;;;;;;;;;;4978605;28;20265;-82
2022/02/25 07:20:05;;;;;;;14.47;2.17;;;;;;;;;;4980395;28;20489;-80
2022/02/25 07:22:32;;;;;;;8.47;1.90;;;;;;;;;;4972678;28;20226;-81
2022/02/25 07:25:00;;;;;;;12.73;1.50;;;;;;;;;;4978039;28;20293;-81
2022/02/25 07:27:27;;;;;;;11.53;1.97;;;;;;;;;;4970623;28;20289;-81
2022/02/25 07:29:54;;;;;;;7.67;2.10;;;;;;;;;;4966008;28;20542;-81
2022/02/25 07:32:23;;;;;;;16.10;2.07;;;;;;;;;;4968437;28;20316;-79
2022/02/25 07:34:50;;;;;;;8.37;1.70;;;;;;;;;;4966279;28;20207;-79
2022/02/25 07:37:18;;;;;;;14.37;2.63;;;;;;;;;;4958204;28;20273;-80
2022/02/25 07:39:45;;;;;;;11.03;2.57;;;;;;;;;;4958762;28;20206;-80
2022/02/25 07:42:12;;;;;;;9.03;1.83;;;;;;;;;;4958037;28;20494;-79
2022/02/25 07:44:39;;;;;;;11.90;1.93;;;;;;;;;;4968669;28;20293;-79
2022/02/25 07:47:07;;;;;;;14.97;2.70;;;;;;;;;;4971315;28;20221;-78
2022/02/25 07:49:35;;;;;;;8.57;2.10;;;;;;;;;;4960401;28;20210;-79
2022/02/25 07:52:03;;;;;;;8.27;1.90;;;;;;;;;;4967102;28;20298;-78
2022/02/25 07:54:32;;;;;;;9.83;2.30;;;;;;;;;;4970175;28;20230;-79
2022/02/25 07:56:59;;;;;;;11.13;1.70;;;;;;;;;;4963648;28;20206;-79
2022/02/25 07:59:26;;;;;;;12.77;1.73;;;;;;;;;;4960535;28;20230;-80
2022/02/25 08:01:54;;;;;;;5.70;1.30;;;;;;;;;;4961776;28;20293;-81
2022/02/25 08:04:21;;;;;;;7.00;1.57;;;;;;;;;;4960574;28;20293;-79
2022/02/25 08:06:52;;;;;;;7.20;1.83;;;;;;;;;;4958000;28;20207;-79
2022/02/25 08:09:19;;;;;;;16.50;2.03;;;;;;;;;;4962541;28;20214;-79
2022/02/25 08:11:46;;;;;;;5.37;1.00;;;;;;;;;;4957251;28;20786;-78
2022/02/25 08:14:13;;;;;;;6.43;1.87;;;;;;;;;;4954808;28;20699;-76
2022/02/25 08:16:41;;;;;;;11.03;2.10;;;;;;;;;;4963733;28;20209;-77
2022/02/25 08:19:08;;;;;;;10.07;1.93;;;;;;;;;;4968802;28;20199;-78
2022/02/25 08:21:35;;;;;;;9.30;1.70;;;;;;;;;;4965799;28;20257;-77
2022/02/25 08:24:03;;;;;;;9.40;1.60;;;;;;;;;;4962635;28;20313;-77
2022/02/25 08:26:31;;;;;;;16.83;1.80;;;;;;;;;;4970802;28;20270;-77
2022/02/25 08:28:58;;;;;;;9.10;2.20;;;;;;;;;;4966058;28;20288;-77
2022/02/25 08:31:25;;;;;;;5.63;1.50;;;;;;;;;;4961809;28;20289;-76
2022/02/25 08:33:52;;;;;;;8.83;1.53;;;;;;;;;;4964697;28;20293;-76
2022/02/25 08:36:20;;;;;;;7.07;1.17;;;;;;;;;;4963451;28;20240;-78
2022/02/25 08:38:47;;;;;;;8.30;1.80;;;;;;;;;;4964155;28;20202;-77
2022/02/25 08:41:16;;;;;;;13.80;1.73;;;;;;;;;;4967071;28;20212;-78
2022/02/25 08:43:45;;;;;;;8.43;1.57;;;;;;;;;;4966699;28;20236;-77
2022/02/25 08:46:12;;;;;;;7.57;1.47;;;;;;;;;;4969603;28;20574;-77
2022/02/25 08:48:39;;;;;;;6.93;2.07;;;;;;;;;;4963501;28;20238;-78
2022/02/25 08:51:07;;;;;;;10.93;1.63;;;;;;;;;;4965992;28;20220;-77
2022/02/25 08:53:34;;;;;;;9.90;1.97;;;;;;;;;;4964641;28;20588;-75
2022/02/25 08:56:01;;;;;;;11.33;1.90;;;;;;;;;;4962788;28;20206;-81
2022/02/25 08:58:30;;;;;;;7.37;1.80;;;;;;;;;;4959919;28;20196;-77
2022/02/25 09:00:57;;;;;;;7.17;1.40;;;;;;;;;;4962836;28;20206;-80
2022/02/25 09:03:24;;;;;;;10.03;1.53;;;;;;;;;;4962523;28;20609;-76
2022/02/25 09:05:51;;;;;;;9.93;1.60;;;;;;;;;;4968840;28;20205;-78
2022/02/25 09:08:18;;;;;;;9.13;1.90;;;;;;;;;;4963968;28;20248;-77
2022/02/25 09:10:47;;;;;;;7.73;1.30;;;;;;;;;;4960432;28;20217;-78
2022/02/25 09:13:14;;;;;;;9.63;1.90;;;;;;;;;;4961361;28;20228;-78
2022/02/25 09:15:43;;;;;;;8.00;1.70;;;;;;;;;;4955469;28;20210;-80
2022/02/25 09:18:10;;;;;;;14.37;1.73;;;;;;;;;;4962632;28;20288;-76
2022/02/25 09:20:38;;;;;;;8.47;1.67;;;;;;;;;;4959752;28;20216;-79
2022/02/25 09:23:05;;;;;;;9.67;1.67;;;;;;;;;;4960436;28;20324;-76
2022/02/25 09:25:33;;;;;;;12.43;1.83;;;;;;;;;;4962953;28;20860;-76
2022/02/25 09:28:00;;;;;;;12.47;1.93;;;;;;;;;;4955104;28;20229;-79
2022/02/25 09:30:28;;;;;;;6.63;1.80;;;;;;;;;;4966586;28;20229;-76
2022/02/25 09:32:58;;;;;;;10.20;1.70;;;;;;;;;;4960707;28;20405;-76
2022/02/25 09:35:25;;;;;;;15.00;1.70;;;;;;;;;;4957633;28;20209;-77
2022/02/25 09:37:52;;;;;;;15.77;2.17;;;;;;;;;;4959258;28;20571;-79
2022/02/25 09:40:20;;;;;;;13.67;1.50;;;;;;;;;;4958587;28;20672;-76
2022/02/25 09:42:48;;;;;;;10.30;1.60;;;;;;;;;;4958279;28;20331;-76
2022/02/25 09:45:16;;;;;;;15.43;2.10;;;;;;;;;;4961677;28;20614;-76
2022/02/25 09:47:43;;;;;;;11.07;1.90;;;;;;;;;;4962620;28;20607;-75
2022/02/25 09:50:13;;;;;;;6.73;1.60;;;;;;;;;;4964521;28;20218;-77
2022/02/25 09:52:41;;;;;;;11.90;2.00;;;;;;;;;;4965439;28;20647;-78
2022/02/25 09:55:09;;;;;;;11.93;1.57;;;;;;;;;;4958773;28;20567;-75
2022/02/25 09:57:36;;;;;;;11.93;1.70;;;;;;;;;;4959582;28;20289;-76
2022/02/25 10:00:06;;;;;;;10.83;1.80;;;;;;;;;;4965849;28;20202;-76
2022/02/25 10:02:39;;;;;;;9.97;1.50;;;;;;;;;;4960183;28;20648;-79
2022/02/25 10:05:11;;;;;;;10.07;1.60;;;;;;;;;;4964665;28;20778;-77
2022/02/25 10:07:40;;;;;;;10.10;2.00;;;;;;;;;;4958641;28;20212;-76
2022/02/25 10:10:08;;;;;;;11.03;1.90;;;;;;;;;;4968969;28;20210;-79
2022/02/25 10:12:35;;;;;;;7.57;1.50;;;;;;;;;;4965924;28;20321;-77
2022/02/25 10:15:03;;;;;;;8.83;1.60;;;;;;;;;;4962571;28;20679;-76
2022/02/25 10:17:30;;;;;;;10.50;1.70;;;;;;;;;;4959408;28;20230;-78
2022/02/25 10:19:59;;;;;;;7.37;1.80;;;;;;;;;;4958030;28;20205;-79
2022/02/25 10:22:27;;;;;;;8.03;1.40;;;;;;;;;;4954995;28;20320;-77
2022/02/25 10:24:57;;;;;;;7.73;1.50;;;;;;;;;;4961971;28;20206;-75
2022/02/25 10:27:25;;;;;;;7.53;1.87;;;;;;;;;;4964017;28;20210;-77
2022/02/25 10:30:01;;;;;;;9.47;1.17;;;;;;;;;;4955519;28;20692;-76
2022/02/25 10:32:29;;;;;;;8.50;1.43;;;;;;;;;;4961112;28;20243;-78
2022/02/25 10:34:56;;;;;;;9.57;1.70;;;;;;;;;;4960929;28;20204;-79
2022/02/25 10:37:23;;;;;;;6.80;1.43;;;;;;;;;;4962944;28;20325;-77
2022/02/25 10:39:50;;;;;;;5.60;1.70;;;;;;;;;;4964124;28;20208;-77
2022/02/25 10:42:22;;;;;;;6.37;1.53;;;;;;;;;;4968133;28;20244;-78
2022/02/25 10:44:51;;;;;;;5.57;1.20;;;;;;;;;;4960268;28;20608;-77
2022/02/25 10:47:19;;;;;;;8.30;2.03;;;;;;;;;;4962669;28;20202;-76
2022/02/25 10:49:47;;;;;;;8.20;1.60;;;;;;;;;;4959801;28;20721;-77
2022/02/25 10:52:21;;;;;;;3.03;1.23;;;;;;;;;;4966787;28;20228;-76
2022/02/25 10:54:48;;;;;;;6.70;1.80;;;;;;;;;;4967079;28;20210;-78
2022/02/25 10:57:15;;;;;;;13.07;1.67;;;;;;;;;;4969681;28;20272;-78
2022/02/25 10:59:44;;;;;;;5.30;1.57;;;;;;;;;;4963654;28;20215;-77
2022/02/25 11:02:26;;;;;;;11.47;2.57;;;;;;;;;;4971620;28;20271;-78
2022/02/25 11:05:05;;;;;;;17.07;2.10;;;;;;;;;;4968737;28;20205;-78
2022/02/25 11:07:32;;;;;;;10.43;2.43;;;;;;;;;;4971106;28;20221;-77
2022/02/25 11:10:00;;;;;;;5.70;1.47;;;;;;;;;;4968315;28;20232;-77
2022/02/25 11:12:28;;;;;;;8.30;1.50;;;;;;;;;;4969408;28;20231;-76
2022/02/25 11:14:57;;;;;;;11.97;2.60;;;;;;;;;;4967607;28;20284;-78
2022/02/25 11:17:25;;;;;;;3.33;1.63;;;;;;;;;;4971283;28;20638;-78
2022/02/25 11:19:56;;;;;;;13.80;2.83;;;;;;;;;;4961084;28;20589;-78
2022/02/25 11:22:24;;;;;;;5.83;2.17;;;;;;;;;;4972744;28;20315;-76
2022/02/25 11:24:52;;;;;;;10.60;2.20;;;;;;;;;;4970070;28;20209;-77
2022/02/25 11:27:20;;;;;;;9.87;2.83;;;;;;;;;;4967625;28;20655;-77
2022/02/25 11:29:52;;;;;;;11.03;2.90;;;;;;;;;;4967982;28;20225;-77
2022/02/25 11:32:23;;;;;;;20.70;3.27;;;;;;;;;;4972405;28;20226;-76
2022/02/25 11:34:50;;;;;;;14.33;3.27;;;;;;;;;;4966185;28;20293;-76
2022/02/25 11:37:32;;;;;;;10.07;2.73;;;;;;;;;;4970536;28;20507;-75
2022/02/25 11:39:59;;;;;;;13.73;3.83;;;;;;;;;;4971159;28;20509;-79
2022/02/25 11:42:29;;;;;;;9.33;2.67;;;;;;;;;;4965228;28;20226;-78
2022/02/25 11:45:04;;;;;;;18.23;4.27;;;;;;;;;;4965947;28;20259;-75
2022/02/25 11:47:39;;;;;;;9.77;2.77;;;;;;;;;;4968659;28;20671;-78
2022/02/25 11:50:21;;;;;;;6.37;2.30;;;;;;;;;;4967680;28;20266;-75
2022/02/25 11:52:59;;;;;;;14.57;3.27;;;;;;;;;;4967785;28;20236;-76
2022/02/25 11:55:26;;;;;;;11.37;2.90;;;;;;;;;;4961377;28;20198;-78
2022/02/25 11:57:54;;;;;;;14.17;2.90;;;;;;;;;;4967789;28;20210;-78
2022/02/25 12:00:22;;;;;;;12.60;2.67;;;;;;;;;;4965347;28;20226;-78
2022/02/25 12:03:08;;;;;;;14.37;2.60;;;;;;;;;;4964779;28;20273;-77
2022/02/25 12:05:39;;;;;;;15.67;2.77;;;;;;;;;;4964331;28;20215;-77
2022/02/25 12:08:23;;;;;;;6.50;1.90;;;;;;;;;;4966472;28;20206;-78
2022/02/25 12:10:50;;;;;;;11.70;2.77;;;;;;;;;;4962746;28;20252;-77
2022/02/25 12:13:21;;;;;;;8.07;2.77;;;;;;;;;;4970505;28;20273;-77
2022/02/25 12:15:50;;;;;;;13.80;2.73;;;;;;;;;;4962122;28;20214;-77
2022/02/25 12:18:19;;;;;;;18.03;2.53;;;;;;;;;;4962297;28;20224;-77
2022/02/25 12:20:51;;;;;;;8.20;2.40;;;;;;;;;;4961270;28;20248;-78
2022/02/25 12:23:20;;;;;;;12.10;2.37;;;;;;;;;;4960088;28;20341;-78
2022/02/25 12:25:49;;;;;;;8.00;2.70;;;;;;;;;;4962010;28;20304;-77
2022/02/25 12:28:33;;;;;;;14.03;2.40;;;;;;;;;;4959857;28;20198;-77
2022/02/25 12:31:01;;;;;;;7.57;2.63;;;;;;;;;;4962079;28;20213;-77
2022/02/25 12:33:32;;;;;;;10.63;2.53;;;;;;;;;;4956423;28;20237;-77
2022/02/25 12:36:02;;;;;;;12.30;2.90;;;;;;;;;;4963651;28;20206;-77
2022/02/25 12:38:31;;;;;;;18.30;2.70;;;;;;;;;;4960579;28;20651;-77
2022/02/25 12:41:10;;;;;;;19.57;3.10;;;;;;;;;;4960489;28;20206;-77
2022/02/25 12:43:46;;;;;;;9.73;2.77;;;;;;;;;;4958745;28;20718;-77
2022/02/25 12:46:13;;;;;;;8.30;2.63;;;;;;;;;;4958478;28;20241;-77
2022/02/25 12:48:50;;;;;;;;;;;;;;;;;;;;;
2022/02/25 12:51:26;;;;;;;9.37;2.60;;;;;;;;;;5010886;28;20267;-82
2022/02/25 12:53:54;;;;;;;11.37;2.43;;;;;;;;;;5012861;28;20319;-86
2022/02/25 12:56:22;;;;;;;11.63;2.10;;;;;;;;;;5008495;28;20213;-86
2022/02/25 12:58:50;;;;;;;12.90;2.63;;;;;;;;;;5014965;28;20232;-86
2022/02/25 13:01:18;;;;;;;17.53;2.70;;;;;;;;;;5014286;28;20434;-85
2022/02/25 13:03:45;;;;;;;8.90;2.33;;;;;;;;;;5009104;28;20208;-86
2022/02/25 13:06:12;;;;;;;14.37;2.47;;;;;;;;;;5012196;28;20260;-85
2022/02/25 13:08:41;;;;;;;15.90;2.73;;;;;;;;;;5011507;28;20231;-86
2022/02/25 13:11:09;;;;;;;18.90;2.80;;;;;;;;;;5009256;28;20752;-85
2022/02/25 13:13:36;;;;;;;18.93;2.50;;;;;;;;;;5010496;28;20212;-85
2022/02/25 13:16:04;;;;;;;13.47;2.90;;;;;;;;;;5012781;28;20216;-85
2022/02/25 13:18:32;;;;;;;10.43;2.17;;;;;;;;;;5005105;28;20292;-84
2022/02/25 13:21:00;;;;;;;7.87;2.10;;;;;;;;;;5002416;28;20236;-84
2022/02/25 13:23:27;;;;;;;8.13;1.90;;;;;;;;;;5007311;28;20210;-84
2022/02/25 13:25:58;;;;;;;11.23;1.83;;;;;;;;;;5007257;28;20243;-85
2022/02/25 13:28:25;;;;;;;11.30;2.10;;;;;;;;;;5011037;28;20219;-85
2022/02/25 13:30:53;;;;;;;7.90;2.17;;;;;;;;;;5020707;28;20235;-86
2022/02/25 13:33:21;;;;;;;6.63;1.90;;;;;;;;;;5012812;28;20247;-86
2022/02/25 13:35:49;;;;;;;10.67;2.30;;;;;;;;;;5011649;28;20215;-86
2022/02/25 13:38:18;;;;;;;8.53;1.87;;;;;;;;;;5004765;28;20262;-85
2022/02/25 13:40:47;;;;;;;8.93;1.80;;;;;;;;;;5007806;28;20289;-86
2022/02/25 13:43:19;;;;;;;12.13;2.00;;;;;;;;;;5005973;28;20311;-85
2022/02/25 13:45:46;;;;;;;13.93;2.13;;;;;;;;;;5008486;28;20657;-86
2022/02/25 13:53:47;;;;;;;10.03;2.30;;;;;;;;;;5009355;28;20211;-85
2022/02/25 13:56:15;;;;;;;10.97;2.00;;;;;;;;;;5006446;28;20680;-86
2022/02/25 13:58:57;;;;;;;11.77;2.17;;;;;;;;;;5004901;28;20679;-86
2022/02/25 14:01:24;;;;;;;9.90;2.03;;;;;;;;;;5006372;28;20222;-85
2022/02/25 14:03:51;;;;;;;8.67;2.10;;;;;;;;;;5004787;28;20247;-86
2022/02/25 14:06:29;;;;;;;11.53;2.57;;;;;;;;;;5006672;28;20243;-86
2022/02/25 14:08:57;;;;;;;9.57;2.00;;;;;;;;;;5003936;28;20225;-85
2022/02/25 14:11:30;;;;;;;13.73;2.67;;;;;;;;;;5004542;28;20705;-86
2022/02/25 14:13:59;;;;;;;9.70;2.33;;;;;;;;;;5001626;28;20208;-84
2022/02/25 14:16:26;;;;;;;14.10;2.37;;;;;;;;;;5003679;28;20672;-83
2022/02/25 14:18:54;;;;;;;7.77;2.60;;;;;;;;;;5008502;28;20252;-84
2022/02/25 14:21:28;;;;;;;8.37;2.73;;;;;;;;;;5009201;28;20197;-84
2022/02/25 14:23:55;;;;;;;9.60;4.03;;;;;;;;;;5008115;28;20218;-84
2022/02/25 14:26:27;;;;;;;10.03;2.00;;;;;;;;;;5011815;28;20721;-83
2022/02/25 14:28:54;;;;;;;13.10;2.30;;;;;;;;;;5005806;28;20535;-84
2022/02/25 14:31:26;;;;;;;9.80;1.90;;;;;;;;;;5008945;28;20296;-84
2022/02/25 14:33:55;;;;;;;7.53;1.77;;;;;;;;;;5008633;28;20208;-84
2022/02/25 14:36:23;;;;;;;11.83;2.03;;;;;;;;;;5012132;28;20613;-83
2022/02/25 14:38:51;;;;;;;8.33;1.70;;;;;;;;;;5014276;28;20287;-84
2022/02/25 14:41:20;;;;;;;11.73;1.90;;;;;;;;;;5008637;28;20730;-83
2022/02/25 14:43:47;;;;;;;6.93;2.33;;;;;;;;;;5007782;28;20205;-83
2022/02/25 14:46:14;;;;;;;4.47;1.80;;;;;;;;;;5007831;28;20209;-84
2022/02/25 14:48:43;;;;;;;7.90;1.57;;;;;;;;;;5009795;28;20271;-85
2022/02/25 14:51:14;;;;;;;3.53;1.40;;;;;;;;;;5007002;28;20224;-84
2022/02/25 14:53:41;;;;;;;7.23;1.90;;;;;;;;;;5010541;28;20215;-85
2022/02/25 14:56:09;;;;;;;3.33;1.50;;;;;;;;;;5006121;28;20224;-85